sensor_id;sensor_type;location;lat;lon;timestamp;pressure;altitude;pressure_sealevel;temperature
20490;BMP280;10403;54.092;12.122;2023-12-14T00:01:18;101143.72;;;5.39
20490;BMP280;10403;54.092;12.122;2023-12-14T00:03:45;101154.09;;;5.41
20490;BMP280;10403;54.092;12.122;2023-12-14T00:06:14;101158.41;;;5.37
20490;BMP280;10403;54.092;12.122;2023-12-14T00:08:41;101171.38;;;5.37
20490;BMP280;10403;54.092;12.122;2023-12-14T00:11:10;101164.44;;;5.36
20490;BMP280;10403;54.092;12.122;2023-12-14T00:13:39;101170.44;;;5.34
20490;BMP280;10403;54.092;12.122;2023-12-14T00:16:07;101162.56;;;5.26
20490;BMP280;10403;54.092;12.122;2023-12-14T00:18:36;101160.81;;;5.25
20490;BMP280;10403;54.092;12.122;2023-12-14T00:21:03;101189.50;;;5.36
20490;BMP280;10403;54.092;12.122;2023-12-14T00:23:31;101181.69;;;5.34
20490;BMP280;10403;54.092;12.122;2023-12-14T00:25:58;101181.69;;;5.34
20490;BMP280;10403;54.092;12.122;2023-12-14T00:28:25;101180.78;;;5.31
20490;BMP280;10403;54.092;12.122;2023-12-14T00:30:56;101175.59;;;5.32
20490;BMP280;10403;54.092;12.122;2023-12-14T00:33:24;101178.22;;;5.32
20490;BMP280;10403;54.092;12.122;2023-12-14T00:35:51;101187.78;;;5.36
20490;BMP280;10403;54.092;12.122;2023-12-14T00:38:18;101186.94;;;5.37
20490;BMP280;10403;54.092;12.122;2023-12-14T00:40:45;101182.63;;;5.38
20490;BMP280;10403;54.092;12.122;2023-12-14T00:43:12;101186.09;;;5.38
20490;BMP280;10403;54.092;12.122;2023-12-14T00:45:39;101189.53;;;5.37
20490;BMP280;10403;54.092;12.122;2023-12-14T00:48:08;101194.69;;;5.36
20490;BMP280;10403;54.092;12.122;2023-12-14T00:50:35;101194.69;;;5.36
20490;BMP280;10403;54.092;12.122;2023-12-14T00:53:03;101204.25;;;5.38
20490;BMP280;10403;54.092;12.122;2023-12-14T00:55:30;101209.44;;;5.40
20490;BMP280;10403;54.092;12.122;2023-12-14T00:57:57;101218.97;;;5.41
20490;BMP280;10403;54.092;12.122;2023-12-14T01:00:24;101218.06;;;5.39
20490;BMP280;10403;54.092;12.122;2023-12-14T01:02:51;101225.00;;;5.38
20490;BMP280;10403;54.092;12.122;2023-12-14T01:05:19;101217.06;;;5.29
20490;BMP280;10403;54.092;12.122;2023-12-14T01:07:46;101236.16;;;5.33
20490;BMP280;10403;54.092;12.122;2023-12-14T01:10:13;101227.47;;;5.31
20490;BMP280;10403;54.092;12.122;2023-12-14T01:12:40;101227.44;;;5.29
20490;BMP280;10403;54.092;12.122;2023-12-14T01:15:08;101236.97;;;5.30
20490;BMP280;10403;54.092;12.122;2023-12-14T01:17:35;101249.94;;;5.30
20490;BMP280;10403;54.092;12.122;2023-12-14T01:20:09;101249.06;;;5.28
20490;BMP280;10403;54.092;12.122;2023-12-14T01:22:36;101247.34;;;5.29
20490;BMP280;10403;54.092;12.122;2023-12-14T01:25:04;101254.25;;;5.28
20490;BMP280;10403;54.092;12.122;2023-12-14T01:27:31;101255.97;;;5.29
20490;BMP280;10403;54.092;12.122;2023-12-14T01:29:58;101269.81;;;5.28
20490;BMP280;10403;54.092;12.122;2023-12-14T01:32:26;101251.50;;;5.20
20490;BMP280;10403;54.092;12.122;2023-12-14T01:34:53;101276.72;;;5.29
20490;BMP280;10403;54.092;12.122;2023-12-14T01:37:20;101276.78;;;5.32
20490;BMP280;10403;54.092;12.122;2023-12-14T01:39:47;101262.88;;;5.27
20490;BMP280;10403;54.092;12.122;2023-12-14T01:42:14;101266.31;;;5.26
20490;BMP280;10403;54.092;12.122;2023-12-14T01:44:42;101273.31;;;5.32
20490;BMP280;10403;54.092;12.122;2023-12-14T01:47:09;101286.31;;;5.33
20490;BMP280;10403;54.092;12.122;2023-12-14T01:49:36;101268.09;;;5.30
20490;BMP280;10403;54.092;12.122;2023-12-14T01:52:04;101255.06;;;5.26
20490;BMP280;10403;54.092;12.122;2023-12-14T01:54:32;101271.50;;;5.26
20490;BMP280;10403;54.092;12.122;2023-12-14T01:57:00;101274.13;;;5.28
20490;BMP280;10403;54.092;12.122;2023-12-14T01:59:27;101275.00;;;5.30
20490;BMP280;10403;54.092;12.122;2023-12-14T02:01:56;101276.75;;;5.31
20490;BMP280;10403;54.092;12.122;2023-12-14T02:04:24;101290.59;;;5.31
20490;BMP280;10403;54.092;12.122;2023-12-14T02:06:52;101286.28;;;5.32
20490;BMP280;10403;54.092;12.122;2023-12-14T02:09:19;101290.66;;;5.34
20490;BMP280;10403;54.092;12.122;2023-12-14T02:11:46;101289.81;;;5.35
20490;BMP280;10403;54.092;12.122;2023-12-14T02:14:13;101274.16;;;5.31
20490;BMP280;10403;54.092;12.122;2023-12-14T02:16:41;101288.97;;;5.36
20490;BMP280;10403;54.092;12.122;2023-12-14T02:19:08;101299.34;;;5.36
20490;BMP280;10403;54.092;12.122;2023-12-14T02:21:35;101295.84;;;5.34
20490;BMP280;10403;54.092;12.122;2023-12-14T02:24:02;101296.75;;;5.36
20490;BMP280;10403;54.092;12.122;2023-12-14T02:26:30;101298.53;;;5.40
20490;BMP280;10403;54.092;12.122;2023-12-14T02:28:57;101289.88;;;5.40
20490;BMP280;10403;54.092;12.122;2023-12-14T02:31:24;101291.66;;;5.42
20490;BMP280;10403;54.092;12.122;2023-12-14T02:33:51;101289.88;;;5.40
20490;BMP280;10403;54.092;12.122;2023-12-14T02:36:18;101294.28;;;5.44
20490;BMP280;10403;54.092;12.122;2023-12-14T02:38:45;101283.72;;;5.33
20490;BMP280;10403;54.092;12.122;2023-12-14T02:41:12;101297.72;;;5.44
20490;BMP280;10403;54.092;12.122;2023-12-14T02:43:40;101298.63;;;5.46
20490;BMP280;10403;54.092;12.122;2023-12-14T02:46:08;101283.84;;;5.42
20490;BMP280;10403;54.092;12.122;2023-12-14T02:48:35;101291.63;;;5.41
20490;BMP280;10403;54.092;12.122;2023-12-14T02:51:03;101296.03;;;5.46
20490;BMP280;10403;54.092;12.122;2023-12-14T02:53:30;101290.00;;;5.47
20490;BMP280;10403;54.092;12.122;2023-12-14T02:56:01;101290.00;;;5.49
20490;BMP280;10403;54.092;12.122;2023-12-14T02:58:29;101292.63;;;5.50
20490;BMP280;10403;54.092;12.122;2023-12-14T03:00:56;101294.38;;;5.51
20490;BMP280;10403;54.092;12.122;2023-12-14T03:03:23;101303.91;;;5.52
20490;BMP280;10403;54.092;12.122;2023-12-14T03:05:50;101312.53;;;5.51
20490;BMP280;10403;54.092;12.122;2023-12-14T03:08:17;101312.53;;;5.51
20490;BMP280;10403;54.092;12.122;2023-12-14T03:10:45;101310.78;;;5.50
20490;BMP280;10403;54.092;12.122;2023-12-14T03:13:12;101322.03;;;5.49
20490;BMP280;10403;54.092;12.122;2023-12-14T03:15:42;101319.41;;;5.49
20490;BMP280;10403;54.092;12.122;2023-12-14T03:18:11;101326.34;;;5.49
20490;BMP280;10403;54.092;12.122;2023-12-14T03:20:39;101328.94;;;5.49
20490;BMP280;10403;54.092;12.122;2023-12-14T03:23:06;101334.16;;;5.50
20490;BMP280;10403;54.092;12.122;2023-12-14T03:25:33;101328.97;;;5.50
20490;BMP280;10403;54.092;12.122;2023-12-14T03:28:00;101338.44;;;5.48
20490;BMP280;10403;54.092;12.122;2023-12-14T03:30:27;101340.19;;;5.49
20490;BMP280;10403;54.092;12.122;2023-12-14T03:32:54;101348.84;;;5.50
20490;BMP280;10403;54.092;12.122;2023-12-14T03:35:22;101352.31;;;5.50
20490;BMP280;10403;54.092;12.122;2023-12-14T03:37:49;101353.16;;;5.49
20490;BMP280;10403;54.092;12.122;2023-12-14T03:40:16;101364.38;;;5.48
20490;BMP280;10403;54.092;12.122;2023-12-14T03:42:43;101365.25;;;5.47
20490;BMP280;10403;54.092;12.122;2023-12-14T03:45:10;101363.53;;;5.48
20490;BMP280;10403;54.092;12.122;2023-12-14T03:47:37;101361.78;;;5.48
20490;BMP280;10403;54.092;12.122;2023-12-14T03:50:06;101373.88;;;5.46
20490;BMP280;10403;54.092;12.122;2023-12-14T03:52:33;101383.41;;;5.47
20490;BMP280;10403;54.092;12.122;2023-12-14T03:55:01;101387.69;;;5.45
20490;BMP280;10403;54.092;12.122;2023-12-14T03:57:28;101398.09;;;5.45
20490;BMP280;10403;54.092;12.122;2023-12-14T03:59:55;101389.31;;;5.40
20490;BMP280;10403;54.092;12.122;2023-12-14T04:02:22;101401.53;;;5.44
20490;BMP280;10403;54.092;12.122;2023-12-14T04:04:50;101403.31;;;5.47
20490;BMP280;10403;54.092;12.122;2023-12-14T04:07:17;101405.03;;;5.46
20490;BMP280;10403;54.092;12.122;2023-12-14T04:09:45;101406.72;;;5.44
20490;BMP280;10403;54.092;12.122;2023-12-14T04:12:12;101413.66;;;5.45
20490;BMP280;10403;54.092;12.122;2023-12-14T04:14:39;101414.50;;;5.44
20490;BMP280;10403;54.092;12.122;2023-12-14T04:17:06;101419.63;;;5.41
20490;BMP280;10403;54.092;12.122;2023-12-14T04:19:34;101417.09;;;5.44
20490;BMP280;10403;54.092;12.122;2023-12-14T04:22:01;101397.97;;;5.39
20490;BMP280;10403;54.092;12.122;2023-12-14T04:24:29;101409.38;;;5.47
20490;BMP280;10403;54.092;12.122;2023-12-14T04:26:57;101411.97;;;5.47
20490;BMP280;10403;54.092;12.122;2023-12-14T04:29:24;101385.75;;;5.32
20490;BMP280;10403;54.092;12.122;2023-12-14T04:31:51;101420.63;;;5.49
20490;BMP280;10403;54.092;12.122;2023-12-14T04:34:20;101430.13;;;5.49
20490;BMP280;10403;54.092;12.122;2023-12-14T04:36:48;101437.03;;;5.48
20490;BMP280;10403;54.092;12.122;2023-12-14T04:39:15;101430.09;;;5.46
20490;BMP280;10403;54.092;12.122;2023-12-14T04:41:44;101441.28;;;5.43
20490;BMP280;10403;54.092;12.122;2023-12-14T04:44:11;101437.84;;;5.44
20490;BMP280;10403;54.092;12.122;2023-12-14T04:46:38;101446.44;;;5.42
20490;BMP280;10403;54.092;12.122;2023-12-14T04:49:06;101446.47;;;5.43
20490;BMP280;10403;54.092;12.122;2023-12-14T04:51:33;101445.66;;;5.46
20490;BMP280;10403;54.092;12.122;2023-12-14T04:54:00;101462.13;;;5.46
20490;BMP280;10403;54.092;12.122;2023-12-14T04:56:27;101472.34;;;5.40
20490;BMP280;10403;54.092;12.122;2023-12-14T04:58:54;101468.88;;;5.38
20490;BMP280;10403;54.092;12.122;2023-12-14T05:01:22;101458.34;;;5.31
20490;BMP280;10403;54.092;12.122;2023-12-14T05:03:49;101467.13;;;5.37
20490;BMP280;10403;54.092;12.122;2023-12-14T05:06:16;101464.53;;;5.39
20490;BMP280;10403;54.092;12.122;2023-12-14T05:08:43;101462.78;;;5.36
20490;BMP280;10403;54.092;12.122;2023-12-14T05:11:12;101467.94;;;5.35
20490;BMP280;10403;54.092;12.122;2023-12-14T05:13:40;101474.81;;;5.33
20490;BMP280;10403;54.092;12.122;2023-12-14T05:16:14;101479.13;;;5.32
20490;BMP280;10403;54.092;12.122;2023-12-14T05:18:41;101474.00;;;5.35
20490;BMP280;10403;54.092;12.122;2023-12-14T05:21:08;101482.69;;;5.37
20490;BMP280;10403;54.092;12.122;2023-12-14T05:23:35;101481.84;;;5.38
20490;BMP280;10403;54.092;12.122;2023-12-14T05:26:03;101475.78;;;5.38
20490;BMP280;10403;54.092;12.122;2023-12-14T05:28:30;101480.94;;;5.36
20490;BMP280;10403;54.092;12.122;2023-12-14T05:30:58;101479.94;;;5.30
20490;BMP280;10403;54.092;12.122;2023-12-14T05:33:25;101501.72;;;5.36
20490;BMP280;10403;54.092;12.122;2023-12-14T05:35:52;101498.28;;;5.37
20490;BMP280;10403;54.092;12.122;2023-12-14T05:38:19;101508.56;;;5.34
20490;BMP280;10403;54.092;12.122;2023-12-14T05:40:46;101509.41;;;5.33
20490;BMP280;10403;54.092;12.122;2023-12-14T05:43:13;101518.13;;;5.35
20490;BMP280;10403;54.092;12.122;2023-12-14T05:45:41;101522.47;;;5.36
20490;BMP280;10403;54.092;12.122;2023-12-14T05:48:08;101527.66;;;5.36
20490;BMP280;10403;54.092;12.122;2023-12-14T05:50:35;101532.81;;;5.35
20490;BMP280;10403;54.092;12.122;2023-12-14T05:53:02;101525.91;;;5.35
20490;BMP280;10403;54.092;12.122;2023-12-14T05:55:30;101528.56;;;5.38
20490;BMP280;10403;54.092;12.122;2023-12-14T05:57:57;101531.97;;;5.36
20490;BMP280;10403;54.092;12.122;2023-12-14T06:00:24;101534.59;;;5.37
20490;BMP280;10403;54.092;12.122;2023-12-14T06:02:51;101534.59;;;5.37
20490;BMP280;10403;54.092;12.122;2023-12-14T06:05:18;101542.38;;;5.39
20490;BMP280;10403;54.092;12.122;2023-12-14T06:07:46;101539.78;;;5.39
20490;BMP280;10403;54.092;12.122;2023-12-14T06:10:13;101543.25;;;5.39
20490;BMP280;10403;54.092;12.122;2023-12-14T06:12:40;101527.50;;;5.30
20490;BMP280;10403;54.092;12.122;2023-12-14T06:15:08;101549.25;;;5.35
20490;BMP280;10403;54.092;12.122;2023-12-14T06:17:36;101552.72;;;5.36
20490;BMP280;10403;54.092;12.122;2023-12-14T06:20:05;101560.53;;;5.37
20490;BMP280;10403;54.092;12.122;2023-12-14T06:22:39;101574.34;;;5.36
20490;BMP280;10403;54.092;12.122;2023-12-14T06:25:06;101566.56;;;5.36
20490;BMP280;10403;54.092;12.122;2023-12-14T06:27:34;101575.97;;;5.31
20490;BMP280;10403;54.092;12.122;2023-12-14T06:30:01;101586.34;;;5.31
20490;BMP280;10403;54.092;12.122;2023-12-14T06:32:29;101584.66;;;5.33
20490;BMP280;10403;54.092;12.122;2023-12-14T06:34:56;101591.59;;;5.34
20490;BMP280;10403;54.092;12.122;2023-12-14T06:37:24;101591.56;;;5.33
20490;BMP280;10403;54.092;12.122;2023-12-14T06:39:51;101596.78;;;5.34
20490;BMP280;10403;54.092;12.122;2023-12-14T06:42:18;101601.97;;;5.34
20490;BMP280;10403;54.092;12.122;2023-12-14T06:44:45;101594.16;;;5.33
20490;BMP280;10403;54.092;12.122;2023-12-14T06:47:12;101595.88;;;5.32
20490;BMP280;10403;54.092;12.122;2023-12-14T06:49:40;101597.56;;;5.30
20490;BMP280;10403;54.092;12.122;2023-12-14T06:52:08;101607.06;;;5.30
20490;BMP280;10403;54.092;12.122;2023-12-14T06:54:36;101615.72;;;5.30
20490;BMP280;10403;54.092;12.122;2023-12-14T06:57:03;101622.63;;;5.28
20490;BMP280;10403;54.092;12.122;2023-12-14T06:59:30;101615.72;;;5.30
20490;BMP280;10403;54.092;12.122;2023-12-14T07:01:58;101613.97;;;5.29
20490;BMP280;10403;54.092;12.122;2023-12-14T07:04:25;101622.66;;;5.31
20490;BMP280;10403;54.092;12.122;2023-12-14T07:06:53;101625.22;;;5.30
20490;BMP280;10403;54.092;12.122;2023-12-14T07:09:20;101633.00;;;5.28
20490;BMP280;10403;54.092;12.122;2023-12-14T07:11:47;101645.16;;;5.32
20490;BMP280;10403;54.092;12.122;2023-12-14T07:14:14;101656.44;;;5.33
20490;BMP280;10403;54.092;12.122;2023-12-14T07:16:42;101651.28;;;5.34
20490;BMP280;10403;54.092;12.122;2023-12-14T07:19:09;101660.78;;;5.34
20490;BMP280;10403;54.092;12.122;2023-12-14T07:21:38;101657.31;;;5.33
20490;BMP280;10403;54.092;12.122;2023-12-14T07:24:05;101665.03;;;5.32
20490;BMP280;10403;54.092;12.122;2023-12-14T07:26:32;101659.69;;;5.24
20490;BMP280;10403;54.092;12.122;2023-12-14T07:29:00;101672.75;;;5.27
20490;BMP280;10403;54.092;12.122;2023-12-14T07:31:27;101662.38;;;5.27
20490;BMP280;10403;54.092;12.122;2023-12-14T07:33:56;101674.50;;;5.28
20490;BMP280;10403;54.092;12.122;2023-12-14T07:36:23;101673.63;;;5.28
20490;BMP280;10403;54.092;12.122;2023-12-14T07:38:50;101688.34;;;5.30
20490;BMP280;10403;54.092;12.122;2023-12-14T07:41:21;101683.16;;;5.30
20490;BMP280;10403;54.092;12.122;2023-12-14T07:43:53;101699.56;;;5.29
20490;BMP280;10403;54.092;12.122;2023-12-14T07:46:21;101697.84;;;5.30
20490;BMP280;10403;54.092;12.122;2023-12-14T07:48:48;101696.84;;;5.23
20490;BMP280;10403;54.092;12.122;2023-12-14T07:51:15;101715.13;;;5.28
20490;BMP280;10403;54.092;12.122;2023-12-14T07:53:42;101722.06;;;5.29
20490;BMP280;10403;54.092;12.122;2023-12-14T07:56:09;101725.50;;;5.29
20490;BMP280;10403;54.092;12.122;2023-12-14T07:58:37;101722.13;;;5.32
20490;BMP280;10403;54.092;12.122;2023-12-14T08:01:04;101717.75;;;5.29
20490;BMP280;10403;54.092;12.122;2023-12-14T08:03:31;101726.44;;;5.31
20490;BMP280;10403;54.092;12.122;2023-12-14T08:05:58;101720.31;;;5.28
20490;BMP280;10403;54.092;12.122;2023-12-14T08:08:26;101734.22;;;5.31
20490;BMP280;10403;54.092;12.122;2023-12-14T08:10:53;101729.06;;;5.33
20490;BMP280;10403;54.092;12.122;2023-12-14T08:13:20;101739.56;;;5.37
20490;BMP280;10403;54.092;12.122;2023-12-14T08:15:47;101737.81;;;5.36
20490;BMP280;10403;54.092;12.122;2023-12-14T08:18:14;101743.94;;;5.38
20490;BMP280;10403;54.092;12.122;2023-12-14T08:20:42;101747.41;;;5.40
20490;BMP280;10403;54.092;12.122;2023-12-14T08:23:09;101752.66;;;5.43
20490;BMP280;10403;54.092;12.122;2023-12-14T08:25:36;101752.66;;;5.43
20490;BMP280;10403;54.092;12.122;2023-12-14T08:28:03;101758.78;;;5.45
20490;BMP280;10403;54.092;12.122;2023-12-14T08:30:31;101760.53;;;5.46
20490;BMP280;10403;54.092;12.122;2023-12-14T08:32:59;101758.81;;;5.47
20490;BMP280;10403;54.092;12.122;2023-12-14T08:35:26;101766.56;;;5.45
20490;BMP280;10403;54.092;12.122;2023-12-14T08:37:53;101766.56;;;5.45
20490;BMP280;10403;54.092;12.122;2023-12-14T08:40:21;101777.88;;;5.47
20490;BMP280;10403;54.092;12.122;2023-12-14T08:42:48;101775.28;;;5.47
20490;BMP280;10403;54.092;12.122;2023-12-14T08:45:15;101777.88;;;5.47
20490;BMP280;10403;54.092;12.122;2023-12-14T08:47:42;101785.66;;;5.47
20490;BMP280;10403;54.092;12.122;2023-12-14T08:50:10;101785.56;;;5.44
20490;BMP280;10403;54.092;12.122;2023-12-14T08:52:37;101794.31;;;5.49
20490;BMP280;10403;54.092;12.122;2023-12-14T08:55:05;101799.56;;;5.51
20490;BMP280;10403;54.092;12.122;2023-12-14T08:57:33;101809.91;;;5.49
20490;BMP280;10403;54.092;12.122;2023-12-14T09:00:00;101816.78;;;5.47
20490;BMP280;10403;54.092;12.122;2023-12-14T09:02:28;101815.06;;;5.48
20490;BMP280;10403;54.092;12.122;2023-12-14T09:04:55;101812.34;;;5.43
20490;BMP280;10403;54.092;12.122;2023-12-14T09:07:22;101816.72;;;5.44
20490;BMP280;10403;54.092;12.122;2023-12-14T09:09:50;101824.47;;;5.43
20490;BMP280;10403;54.092;12.122;2023-12-14T09:12:17;101792.75;;;5.20
20490;BMP280;10403;54.092;12.122;2023-12-14T09:14:44;101830.44;;;5.40
20490;BMP280;10403;54.092;12.122;2023-12-14T09:17:11;101845.97;;;5.37
20490;BMP280;10403;54.092;12.122;2023-12-14T09:19:38;101847.53;;;5.32
20490;BMP280;10403;54.092;12.122;2023-12-14T09:22:05;101840.69;;;5.34
20490;BMP280;10403;54.092;12.122;2023-12-14T09:24:33;101836.22;;;5.29
20490;BMP280;10403;54.092;12.122;2023-12-14T09:27:00;101848.47;;;5.34
20490;BMP280;10403;54.092;12.122;2023-12-14T09:29:27;101847.63;;;5.35
20490;BMP280;10403;54.092;12.122;2023-12-14T09:31:54;101849.34;;;5.35
20490;BMP280;10403;54.092;12.122;2023-12-14T09:34:22;101851.03;;;5.33
20490;BMP280;10403;54.092;12.122;2023-12-14T09:36:49;101845.66;;;5.25
20490;BMP280;10403;54.092;12.122;2023-12-14T09:39:16;101850.94;;;5.30
20490;BMP280;10403;54.092;12.122;2023-12-14T09:41:46;101852.63;;;5.28
20490;BMP280;10403;54.092;12.122;2023-12-14T09:44:14;101859.59;;;5.29
20490;BMP280;10403;54.092;12.122;2023-12-14T09:46:42;101861.28;;;5.28
20490;BMP280;10403;54.092;12.122;2023-12-14T09:49:16;101850.09;;;5.31
20490;BMP280;10403;54.092;12.122;2023-12-14T09:51:45;101847.47;;;5.29
20490;BMP280;10403;54.092;12.122;2023-12-14T09:54:13;101858.81;;;5.33
20490;BMP280;10403;54.092;12.122;2023-12-14T09:56:48;101864.00;;;5.33
20490;BMP280;10403;54.092;12.122;2023-12-14T09:59:16;101842.09;;;5.21
20490;BMP280;10403;54.092;12.122;2023-12-14T10:01:43;101870.94;;;5.34
20490;BMP280;10403;54.092;12.122;2023-12-14T10:04:17;101863.94;;;5.31
20490;BMP280;10403;54.092;12.122;2023-12-14T10:06:47;101874.28;;;5.30
20490;BMP280;10403;54.092;12.122;2023-12-14T10:09:14;101871.72;;;5.31
20490;BMP280;10403;54.092;12.122;2023-12-14T10:11:44;101878.78;;;5.35
20490;BMP280;10403;54.092;12.122;2023-12-14T10:14:23;101876.25;;;5.38
20490;BMP280;10403;54.092;12.122;2023-12-14T10:16:52;101872.75;;;5.36
20490;BMP280;10403;54.092;12.122;2023-12-14T10:19:29;101860.56;;;5.34
20490;BMP280;10403;54.092;12.122;2023-12-14T10:21:57;101844.63;;;5.20
20490;BMP280;10403;54.092;12.122;2023-12-14T10:24:24;101878.06;;;5.42
20490;BMP280;10403;54.092;12.122;2023-12-14T10:26:51;101882.50;;;5.46
20490;BMP280;10403;54.092;12.122;2023-12-14T10:29:18;101892.94;;;5.49
20490;BMP280;10403;54.092;12.122;2023-12-14T10:31:48;101896.38;;;5.48
20490;BMP280;10403;54.092;12.122;2023-12-14T10:34:15;101889.38;;;5.44
20490;BMP280;10403;54.092;12.122;2023-12-14T10:36:46;101897.25;;;5.47
20490;BMP280;10403;54.092;12.122;2023-12-14T10:39:15;101900.69;;;5.46
20490;BMP280;10403;54.092;12.122;2023-12-14T10:41:47;101907.63;;;5.49
20490;BMP280;10403;54.092;12.122;2023-12-14T10:44:27;101897.25;;;5.49
20490;BMP280;10403;54.092;12.122;2023-12-14T10:47:15;101908.56;;;5.51
20490;BMP280;10403;54.092;12.122;2023-12-14T10:49:47;101908.59;;;5.52
20490;BMP280;10403;54.092;12.122;2023-12-14T10:52:19;101910.38;;;5.53
20490;BMP280;10403;54.092;12.122;2023-12-14T10:54:53;101915.56;;;5.53
20490;BMP280;10403;54.092;12.122;2023-12-14T10:57:23;101911.25;;;5.54
20490;BMP280;10403;54.092;12.122;2023-12-14T11:00:02;101916.44;;;5.54
20490;BMP280;10403;54.092;12.122;2023-12-14T11:02:30;101906.75;;;5.47
20490;BMP280;10403;54.092;12.122;2023-12-14T11:05:05;101899.84;;;5.47
20490;BMP280;10403;54.092;12.122;2023-12-14T11:07:54;101919.97;;;5.56
20490;BMP280;10403;54.092;12.122;2023-12-14T11:10:28;101932.91;;;5.54
20490;BMP280;10403;54.092;12.122;2023-12-14T11:13:06;101937.16;;;5.52
20490;BMP280;10403;54.092;12.122;2023-12-14T11:15:37;101932.91;;;5.54
20490;BMP280;10403;54.092;12.122;2023-12-14T11:25:54;101943.38;;;5.57
20490;BMP280;10403;54.092;12.122;2023-12-14T11:28:27;101945.03;;;5.55
20490;BMP280;10403;54.092;12.122;2023-12-14T11:30:55;101943.28;;;5.54
20490;BMP280;10403;54.092;12.122;2023-12-14T11:33:24;101961.63;;;5.62
20490;BMP280;10403;54.092;12.122;2023-12-14T11:35:52;101964.19;;;5.61
20490;BMP280;10403;54.092;12.122;2023-12-14T11:38:24;101958.94;;;5.59
20490;BMP280;10403;54.092;12.122;2023-12-14T11:40:51;101967.63;;;5.59
20490;BMP280;10403;54.092;12.122;2023-12-14T11:43:19;101961.53;;;5.57
20490;BMP280;10403;54.092;12.122;2023-12-14T11:45:51;101979.69;;;5.57
20490;BMP280;10403;54.092;12.122;2023-12-14T11:48:18;101978.81;;;5.57
20490;BMP280;10403;54.092;12.122;2023-12-14T11:50:47;101981.44;;;5.58
20490;BMP280;10403;54.092;12.122;2023-12-14T11:53:15;101988.38;;;5.58
20490;BMP280;10403;54.092;12.122;2023-12-14T11:55:43;101988.31;;;5.56
20490;BMP280;10403;54.092;12.122;2023-12-14T11:58:15;101984.03;;;5.57
20490;BMP280;10403;54.092;12.122;2023-12-14T12:00:43;101983.19;;;5.59
20490;BMP280;10403;54.092;12.122;2023-12-14T12:05:45;101994.53;;;5.63
20490;BMP280;10403;54.092;12.122;2023-12-14T12:08:19;102004.13;;;5.66
20490;BMP280;10403;54.092;12.122;2023-12-14T12:10:48;102002.47;;;5.68
20490;BMP280;10403;54.092;12.122;2023-12-14T12:13:20;102007.66;;;5.68
20490;BMP280;10403;54.092;12.122;2023-12-14T12:15:48;102007.66;;;5.68
20490;BMP280;10403;54.092;12.122;2023-12-14T12:18:17;102001.44;;;5.63
20490;BMP280;10403;54.092;12.122;2023-12-14T12:20:45;102007.66;;;5.68
20490;BMP280;10403;54.092;12.122;2023-12-14T12:23:12;102011.16;;;5.70
20490;BMP280;10403;54.092;12.122;2023-12-14T12:25:39;101995.34;;;5.61
20490;BMP280;10403;54.092;12.122;2023-12-14T12:28:07;101980.50;;;5.55
20490;BMP280;10403;54.092;12.122;2023-12-14T12:30:34;102018.09;;;5.71
20490;BMP280;10403;54.092;12.122;2023-12-14T12:33:06;102014.63;;;5.70
20490;BMP280;10403;54.092;12.122;2023-12-14T12:35:33;102004.34;;;5.73
20490;BMP280;10403;54.092;12.122;2023-12-14T12:38:01;102008.69;;;5.74
20490;BMP280;10403;54.092;12.122;2023-12-14T12:40:29;102006.97;;;5.75
20490;BMP280;10403;54.092;12.122;2023-12-14T12:42:58;102009.56;;;5.75
20490;BMP280;10403;54.092;12.122;2023-12-14T12:45:26;102023.38;;;5.74
20490;BMP280;10403;54.092;12.122;2023-12-14T12:47:55;102012.84;;;5.68
20490;BMP280;10403;54.092;12.122;2023-12-14T12:50:23;102026.81;;;5.73
20490;BMP280;10403;54.092;12.122;2023-12-14T12:52:51;102033.78;;;5.74
20490;BMP280;10403;54.092;12.122;2023-12-14T12:55:19;102031.91;;;5.70
20490;BMP280;10403;54.092;12.122;2023-12-14T12:57:48;102045.91;;;5.75
20490;BMP280;10403;54.092;12.122;2023-12-14T13:00:16;102037.22;;;5.73
20490;BMP280;10403;54.092;12.122;2023-12-14T13:02:45;102034.56;;;5.71
20490;BMP280;10403;54.092;12.122;2023-12-14T13:05:13;102039.72;;;5.70
20490;BMP280;10403;54.092;12.122;2023-12-14T13:07:45;102041.53;;;5.72
20490;BMP280;10403;54.092;12.122;2023-12-14T13:10:14;102047.59;;;5.73
20490;BMP280;10403;54.092;12.122;2023-12-14T13:12:57;102052.75;;;5.71
20490;BMP280;10403;54.092;12.122;2023-12-14T13:15:24;102051.81;;;5.69
20490;BMP280;10403;54.092;12.122;2023-12-14T13:17:53;102055.28;;;5.70
20490;BMP280;10403;54.092;12.122;2023-12-14T13:20:21;102053.47;;;5.66
20490;BMP280;10403;54.092;12.122;2023-12-14T13:22:49;102060.47;;;5.70
20490;BMP280;10403;54.092;12.122;2023-12-14T13:25:17;102064.78;;;5.68
20490;BMP280;10403;54.092;12.122;2023-12-14T13:27:44;102056.94;;;5.66
20490;BMP280;10403;54.092;12.122;2023-12-14T13:30:12;102068.22;;;5.67
20490;BMP280;10403;54.092;12.122;2023-12-14T13:32:44;102072.59;;;5.69
20490;BMP280;10403;54.092;12.122;2023-12-14T13:35:12;102071.69;;;5.69
20490;BMP280;10403;54.092;12.122;2023-12-14T13:37:39;102070.03;;;5.71
20490;BMP280;10403;54.092;12.122;2023-12-14T13:40:07;102079.53;;;5.70
20490;BMP280;10403;54.092;12.122;2023-12-14T13:42:36;102070.63;;;5.61
20490;BMP280;10403;54.092;12.122;2023-12-14T13:45:16;102077.53;;;5.60
20490;BMP280;10403;54.092;12.122;2023-12-14T13:47:43;102077.22;;;5.48
20490;BMP280;10403;54.092;12.122;2023-12-14T13:50:10;102078.16;;;5.51
20490;BMP280;10403;54.092;12.122;2023-12-14T13:52:38;102095.34;;;5.46
20490;BMP280;10403;54.092;12.122;2023-12-14T13:55:05;102090.81;;;5.41
20490;BMP280;10403;54.092;12.122;2023-12-14T13:57:32;102088.13;;;5.36
20490;BMP280;10403;54.092;12.122;2023-12-14T14:00:00;102091.44;;;5.32
20490;BMP280;10403;54.092;12.122;2023-12-14T14:02:28;102103.44;;;5.27
20490;BMP280;10403;54.092;12.122;2023-12-14T14:04:55;102095.44;;;5.21
20490;BMP280;10403;54.092;12.122;2023-12-14T14:07:22;102113.72;;;5.24
20490;BMP280;10403;54.092;12.122;2023-12-14T14:09:49;102119.78;;;5.25
20490;BMP280;10403;54.092;12.122;2023-12-14T14:12:17;102118.91;;;5.24